createdAt,value
2019-05-26T00:00:14.719Z,15.90
2019-05-26T00:02:42.701Z,15.90
2019-05-26T00:05:11.134Z,15.90
2019-05-26T00:07:39.121Z,16.00
2019-05-26T00:10:07.675Z,16.00
2019-05-26T00:12:35.376Z,16.00
2019-05-26T00:15:03.396Z,16.00
2019-05-26T00:17:31.136Z,15.90
2019-05-26T00:19:58.966Z,15.90
2019-05-26T00:22:26.659Z,15.90
2019-05-26T00:24:54.353Z,15.90
2019-05-26T00:27:22.067Z,15.90
2019-05-26T00:29:49.771Z,15.80
2019-05-26T00:32:17.516Z,15.80
2019-05-26T00:34:45.543Z,15.70
2019-05-26T00:37:13.248Z,15.70
2019-05-26T00:39:41.058Z,15.70
2019-05-26T00:42:08.741Z,15.70
2019-05-26T00:44:36.557Z,15.70
2019-05-26T00:47:04.464Z,15.60
2019-05-26T00:49:32.299Z,15.60
2019-05-26T00:52:02.899Z,15.60
2019-05-26T00:54:30.704Z,15.60
2019-05-26T00:56:58.500Z,15.60
2019-05-26T00:59:26.207Z,15.50
2019-05-26T01:01:53.927Z,15.60
2019-05-26T01:04:21.615Z,15.50
2019-05-26T01:06:49.322Z,15.50
2019-05-26T01:09:17.623Z,15.50
2019-05-26T01:11:45.316Z,15.60
2019-05-26T01:14:12.983Z,15.50
2019-05-26T01:16:41.139Z,15.50
2019-05-26T01:19:08.840Z,15.40
2019-05-26T01:21:36.562Z,15.40
2019-05-26T01:24:04.371Z,15.30
2019-05-26T01:26:32.084Z,15.40
2019-05-26T01:28:59.788Z,15.30
2019-05-26T01:31:27.514Z,15.30
2019-05-26T01:33:55.242Z,15.30
2019-05-26T01:36:23.093Z,15.20
2019-05-26T01:38:51.165Z,15.20
2019-05-26T01:41:18.878Z,15.20
2019-05-26T01:43:46.655Z,15.10
2019-05-26T01:46:14.355Z,15.10
2019-05-26T01:48:42.060Z,15.10
2019-05-26T01:51:09.780Z,15.00
2019-05-26T01:53:37.485Z,15.00
2019-05-26T01:56:05.231Z,14.90
2019-05-26T01:58:32.984Z,14.90
2019-05-26T02:01:00.715Z,14.90
2019-05-26T02:03:28.444Z,14.90
2019-05-26T02:05:56.196Z,14.80
2019-05-26T02:08:38.404Z,14.80
2019-05-26T02:10:53.523Z,14.90
2019-05-26T02:13:21.198Z,14.80
2019-05-26T02:15:48.913Z,14.80
2019-05-26T02:18:16.629Z,14.80
2019-05-26T02:20:44.353Z,14.80
2019-05-26T02:23:12.036Z,14.80
2019-05-26T02:25:39.950Z,14.80
2019-05-26T02:28:07.654Z,14.80
2019-05-26T02:30:35.355Z,14.70
2019-05-26T02:33:03.207Z,14.70
2019-05-26T02:35:30.925Z,14.70
2019-05-26T02:37:58.606Z,14.70
2019-05-26T02:40:26.316Z,14.70
2019-05-26T02:42:54.026Z,14.60
2019-05-26T02:45:22.423Z,14.60
2019-05-26T02:47:50.141Z,14.60
2019-05-26T02:50:18.357Z,14.50
2019-05-26T02:52:46.186Z,14.50
2019-05-26T02:55:14.493Z,14.50
2019-05-26T02:57:42.249Z,14.50
2019-05-26T03:00:10.678Z,14.50
2019-05-26T03:02:39.469Z,14.40
2019-05-26T03:05:08.529Z,14.40
2019-05-26T03:07:40.236Z,14.40
2019-05-26T03:10:08.188Z,14.30
2019-05-26T03:12:40.509Z,14.30
2019-05-26T03:15:20.186Z,14.20
2019-05-26T03:17:51.087Z,14.20
2019-05-26T03:20:19.445Z,14.10
2019-05-26T03:22:48.625Z,14.10
2019-05-26T03:25:18.231Z,14.10
2019-05-26T03:27:47.498Z,14.10
2019-05-26T03:30:15.332Z,14.00
2019-05-26T03:32:43.267Z,13.90
2019-05-26T03:35:11.565Z,13.80
2019-05-26T03:37:41.556Z,13.80
2019-05-26T03:40:09.541Z,13.80
2019-05-26T03:42:37.260Z,13.80
2019-05-26T03:45:06.577Z,13.80
2019-05-26T03:47:34.308Z,13.80
2019-05-26T03:50:01.994Z,13.80
2019-05-26T03:52:29.688Z,13.70
2019-05-26T03:54:58.316Z,13.70
2019-05-26T03:57:26.037Z,13.60
2019-05-26T03:59:53.759Z,13.60
2019-05-26T04:02:21.430Z,13.60
2019-05-26T04:04:49.129Z,13.60
2019-05-26T04:07:16.816Z,13.50
2019-05-26T04:10:02.997Z,13.50
2019-05-26T04:12:14.053Z,13.60
2019-05-26T04:14:41.753Z,13.60
2019-05-26T04:17:09.442Z,13.70
2019-05-26T04:19:37.154Z,13.60
2019-05-26T04:22:05.029Z,13.60
2019-05-26T04:24:33.064Z,13.50
2019-05-26T04:27:00.864Z,13.50
2019-05-26T04:29:28.606Z,13.50
2019-05-26T04:32:01.006Z,13.60
2019-05-26T04:34:25.848Z,13.80
2019-05-26T04:36:56.085Z,14.10
2019-05-26T04:39:23.785Z,14.50
2019-05-26T04:41:51.668Z,14.80
2019-05-26T04:44:19.365Z,15.10
2019-05-26T04:46:47.074Z,15.30
2019-05-26T04:49:14.815Z,15.50
2019-05-26T04:51:42.508Z,15.90
2019-05-26T04:54:10.221Z,16.30
2019-05-26T04:56:37.947Z,16.60
2019-05-26T04:59:05.663Z,16.80
2019-05-26T05:01:33.384Z,17.20
2019-05-26T05:04:01.165Z,17.50
2019-05-26T05:06:28.855Z,17.70
2019-05-26T05:08:56.548Z,18.20
2019-05-26T05:11:24.274Z,18.40
2019-05-26T05:13:51.972Z,18.50
2019-05-26T05:16:19.729Z,18.60
2019-05-26T05:18:47.477Z,18.80
2019-05-26T05:21:15.243Z,19.10
2019-05-26T05:23:42.962Z,19.40
2019-05-26T05:26:10.739Z,19.50
2019-05-26T05:28:38.430Z,19.50
2019-05-26T05:31:06.151Z,19.70
2019-05-26T05:33:33.832Z,20.20
2019-05-26T05:36:01.551Z,20.70
2019-05-26T05:38:29.244Z,20.80
2019-05-26T05:40:59.843Z,20.90
2019-05-26T05:43:26.573Z,20.60
2019-05-26T05:45:54.280Z,20.80
2019-05-26T05:48:22.011Z,20.90
2019-05-26T05:50:49.701Z,21.00
2019-05-26T05:53:17.467Z,20.60
2019-05-26T05:55:45.154Z,20.90
2019-05-26T05:58:12.859Z,21.10
2019-05-26T06:00:40.616Z,21.20
2019-05-26T06:03:08.297Z,21.30
2019-05-26T06:05:36.027Z,21.40
2019-05-26T06:08:03.842Z,21.40
2019-05-26T06:10:31.581Z,21.70
2019-05-26T06:12:59.295Z,21.50
2019-05-26T06:15:26.996Z,21.60
2019-05-26T06:17:54.707Z,21.80
2019-05-26T06:20:22.887Z,21.80
2019-05-26T06:22:50.576Z,22.00
2019-05-26T06:25:18.533Z,22.30
2019-05-26T06:27:46.467Z,22.40
2019-05-26T06:30:14.995Z,22.00
2019-05-26T06:32:42.691Z,21.40
2019-05-26T06:35:10.519Z,21.30
2019-05-26T06:37:38.300Z,22.10
2019-05-26T06:40:07.440Z,22.30
2019-05-26T06:42:35.155Z,22.10
2019-05-26T06:45:03.280Z,22.80
2019-05-26T06:47:30.980Z,23.10
2019-05-26T06:49:58.681Z,22.50
2019-05-26T06:52:26.432Z,22.70
2019-05-26T06:54:54.138Z,22.60
2019-05-26T06:57:21.867Z,21.90
2019-05-26T06:59:49.576Z,21.80
2019-05-26T07:02:17.280Z,21.70
2019-05-26T07:04:44.949Z,22.00
2019-05-26T07:07:12.736Z,22.30
2019-05-26T07:09:40.499Z,22.50
2019-05-26T07:12:08.203Z,22.60
2019-05-26T07:14:35.948Z,22.60
2019-05-26T07:17:03.812Z,22.30
2019-05-26T07:19:31.678Z,22.20
2019-05-26T07:21:59.359Z,21.80
2019-05-26T07:24:29.493Z,22.20
2019-05-26T07:27:00.360Z,22.30
2019-05-26T07:29:30.340Z,22.70
2019-05-26T07:31:58.276Z,23.20
2019-05-26T07:34:26.022Z,23.10
2019-05-26T07:36:53.774Z,23.00
2019-05-26T07:39:21.569Z,22.70
2019-05-26T07:42:08.140Z,22.70
2019-05-26T07:44:18.888Z,22.00
2019-05-26T07:46:46.652Z,21.50
2019-05-26T07:49:14.441Z,21.10
2019-05-26T07:51:42.220Z,21.70
2019-05-26T07:54:24.621Z,21.30
2019-05-26T07:56:39.524Z,21.40
2019-05-26T07:59:07.628Z,22.00
2019-05-26T08:01:36.558Z,22.30
2019-05-26T08:04:04.456Z,23.00
2019-05-26T08:06:32.101Z,23.10
2019-05-26T08:08:59.875Z,22.80
2019-05-26T08:11:27.619Z,22.20
2019-05-26T08:13:57.729Z,22.00
2019-05-26T08:16:34.163Z,22.70
2019-05-26T08:19:07.777Z,23.30
2019-05-26T08:21:35.484Z,23.20
2019-05-26T08:24:14.615Z,22.30
2019-05-26T08:26:47.464Z,22.30
2019-05-26T08:29:15.243Z,22.20
2019-05-26T08:31:46.371Z,22.40
2019-05-26T08:34:39.676Z,22.80
2019-05-26T08:37:12.537Z,22.20
2019-05-26T08:39:42.776Z,22.30
2019-05-26T08:42:26.221Z,22.20
2019-05-26T08:44:44.244Z,22.10
2019-05-26T08:47:11.892Z,21.90
2019-05-26T08:49:48.523Z,22.10
2019-05-26T08:52:22.859Z,22.10
2019-05-26T08:54:50.990Z,22.30
2019-05-26T08:57:27.544Z,22.40
2019-05-26T09:00:00.272Z,22.40
2019-05-26T09:02:34.098Z,22.50
2019-05-26T09:05:18.911Z,22.70
2019-05-26T09:07:47.095Z,23.00
2019-05-26T09:10:15.479Z,23.40
2019-05-26T09:12:43.197Z,24.10
2019-05-26T09:15:11.789Z,24.50
2019-05-26T09:17:40.868Z,25.10
2019-05-26T09:20:17.828Z,25.00
2019-05-26T09:22:56.954Z,24.10
2019-05-26T09:25:24.782Z,24.10
2019-05-26T09:27:52.504Z,24.60
2019-05-26T09:30:30.333Z,24.30
2019-05-26T09:32:58.004Z,24.40
2019-05-26T09:35:25.779Z,24.50
2019-05-26T09:37:53.715Z,24.80
2019-05-26T09:40:21.569Z,24.90
2019-05-26T09:42:49.368Z,24.30
2019-05-26T09:45:17.673Z,24.00
2019-05-26T09:47:45.409Z,24.10
2019-05-26T09:50:23.212Z,24.30
2019-05-26T09:52:51.036Z,24.90
2019-05-26T09:55:19.077Z,24.90
2019-05-26T09:57:46.824Z,24.30
2019-05-26T10:00:17.509Z,23.60
2019-05-26T10:02:58.179Z,23.20
2019-05-26T10:05:25.920Z,22.70
2019-05-26T10:08:31.941Z,22.60
2019-05-26T10:11:13.465Z,23.30
2019-05-26T10:13:57.351Z,23.50
2019-05-26T10:16:25.390Z,24.40
2019-05-26T10:19:08.015Z,24.00
2019-05-26T10:21:44.972Z,23.60
2019-05-26T10:24:13.100Z,24.00
2019-05-26T10:27:09.806Z,24.20
2019-05-26T10:29:51.384Z,24.30
2019-05-26T10:32:19.822Z,24.40
2019-05-26T10:35:01.057Z,23.70
2019-05-26T10:37:34.845Z,23.20
2019-05-26T10:40:07.773Z,22.50
2019-05-26T10:42:35.530Z,22.50
2019-05-26T10:45:04.046Z,23.00
2019-05-26T10:47:33.538Z,22.70
2019-05-26T10:50:01.350Z,23.30
2019-05-26T10:52:29.216Z,23.60
2019-05-26T10:54:59.491Z,23.70
2019-05-26T10:57:29.112Z,24.40
2019-05-26T10:59:58.869Z,23.80
2019-05-26T11:02:26.689Z,23.80
2019-05-26T11:04:54.470Z,23.20
2019-05-26T11:07:22.189Z,23.40
2019-05-26T11:09:49.920Z,24.60
2019-05-26T11:12:17.652Z,24.40
2019-05-26T11:14:45.437Z,24.50
2019-05-26T11:17:13.271Z,25.00
2019-05-26T11:19:40.990Z,24.40
2019-05-26T11:22:08.848Z,24.00
2019-05-26T11:24:39.088Z,23.70
2019-05-26T11:27:11.395Z,23.70
2019-05-26T11:29:36.548Z,23.70
2019-05-26T11:32:05.571Z,22.70
2019-05-26T11:35:00.669Z,22.60
2019-05-26T11:37:17.742Z,22.80
2019-05-26T11:39:46.045Z,22.60
2019-05-26T11:42:14.335Z,23.20
2019-05-26T11:44:42.371Z,23.70
2019-05-26T11:47:10.088Z,24.70
2019-05-26T11:49:39.574Z,25.40
2019-05-26T11:52:09.695Z,25.80
2019-05-26T11:54:37.538Z,26.10
2019-05-26T11:57:05.732Z,25.10
2019-05-26T11:59:33.541Z,24.90
2019-05-26T12:02:01.296Z,24.50
2019-05-26T12:04:29.097Z,24.50
2019-05-26T12:06:56.887Z,24.40
2019-05-26T12:09:26.745Z,24.50
2019-05-26T12:11:54.627Z,24.40
2019-05-26T12:14:34.427Z,23.80
2019-05-26T12:16:52.013Z,23.60
2019-05-26T12:19:19.862Z,23.60
2019-05-26T12:21:47.616Z,24.20
2019-05-26T12:24:18.097Z,24.40
2019-05-26T12:26:45.731Z,24.40
2019-05-26T12:29:20.503Z,24.10
2019-05-26T12:31:48.910Z,23.30
2019-05-26T12:34:16.802Z,23.10
2019-05-26T12:36:44.848Z,22.90
2019-05-26T12:39:13.039Z,23.20
2019-05-26T12:41:40.989Z,22.80
2019-05-26T12:44:10.962Z,22.60
2019-05-26T12:46:38.256Z,22.70
2019-05-26T12:49:06.379Z,22.70
2019-05-26T12:51:34.088Z,22.30
2019-05-26T12:54:02.703Z,22.30
2019-05-26T12:56:30.931Z,22.30
2019-05-26T12:58:59.419Z,22.50
2019-05-26T13:01:27.619Z,22.70
2019-05-26T13:03:55.821Z,22.80
2019-05-26T13:06:23.793Z,23.10
2019-05-26T13:08:51.431Z,23.40
2019-05-26T13:11:22.708Z,23.60
2019-05-26T13:13:49.061Z,23.60
2019-05-26T13:16:16.759Z,24.00
2019-05-26T13:18:44.463Z,24.50
2019-05-26T13:21:12.192Z,24.60
2019-05-26T13:23:39.957Z,24.50
2019-05-26T13:26:07.655Z,24.60
2019-05-26T13:28:35.344Z,23.80
2019-05-26T13:31:03.079Z,23.40
2019-05-26T13:33:30.750Z,23.50
2019-05-26T13:35:58.851Z,23.10
2019-05-26T13:38:27.227Z,22.90
2019-05-26T13:40:55.605Z,22.60
2019-05-26T13:43:23.389Z,22.60
2019-05-26T13:45:51.091Z,22.20
2019-05-26T13:48:19.510Z,22.00
2019-05-26T13:50:47.735Z,22.20
2019-05-26T13:53:15.665Z,22.20
2019-05-26T13:55:44.377Z,22.50
2019-05-26T13:58:12.722Z,22.80
2019-05-26T14:00:41.084Z,23.00
2019-05-26T14:03:09.507Z,23.20
2019-05-26T14:05:37.573Z,22.70
2019-05-26T14:08:05.841Z,22.50
2019-05-26T14:10:35.436Z,22.40
2019-05-26T14:13:05.057Z,22.20
2019-05-26T14:15:38.750Z,22.30
2019-05-26T14:18:04.836Z,22.50
2019-05-26T14:20:37.249Z,22.70
2019-05-26T14:23:06.821Z,22.70
2019-05-26T14:25:34.944Z,22.50
2019-05-26T14:28:03.499Z,22.70
2019-05-26T14:30:31.551Z,22.90
2019-05-26T14:32:59.336Z,22.70
2019-05-26T14:35:27.021Z,22.80
2019-05-26T14:37:54.829Z,22.90
2019-05-26T14:40:22.606Z,22.90
2019-05-26T14:42:50.348Z,22.60
2019-05-26T14:45:19.372Z,22.60
2019-05-26T14:47:47.075Z,22.60
2019-05-26T14:50:15.495Z,22.50
2019-05-26T14:52:43.333Z,22.50
2019-05-26T14:55:11.462Z,22.40
2019-05-26T14:57:39.185Z,22.20
2019-05-26T15:00:07.960Z,22.00
2019-05-26T15:02:36.062Z,21.90
2019-05-26T15:05:04.056Z,21.70
2019-05-26T15:07:31.794Z,21.80
2019-05-26T15:09:59.504Z,21.80
2019-05-26T15:12:27.227Z,21.70
2019-05-26T15:14:57.825Z,21.50
2019-05-26T15:17:25.544Z,21.50
2019-05-26T15:19:55.148Z,21.70
2019-05-26T15:22:22.907Z,21.70
2019-05-26T15:24:50.726Z,21.80
2019-05-26T15:27:18.810Z,21.70
2019-05-26T15:29:46.663Z,21.40
2019-05-26T15:32:14.401Z,21.10
2019-05-26T15:34:42.246Z,21.20
2019-05-26T15:37:10.056Z,21.40
2019-05-26T15:39:37.838Z,21.60
2019-05-26T15:42:08.309Z,21.60
2019-05-26T15:44:36.903Z,21.60
2019-05-26T15:47:04.644Z,21.70
2019-05-26T15:49:32.508Z,21.80
2019-05-26T15:52:03.997Z,21.80
2019-05-26T15:54:31.884Z,21.90
2019-05-26T15:56:59.651Z,21.90
2019-05-26T15:59:27.479Z,22.00
2019-05-26T16:01:55.188Z,21.90
2019-05-26T16:04:23.032Z,21.70
2019-05-26T16:06:53.025Z,21.90
2019-05-26T16:09:20.750Z,21.80
2019-05-26T16:11:48.503Z,21.70
2019-05-26T16:14:16.177Z,21.80
2019-05-26T16:16:43.873Z,21.90
2019-05-26T16:19:11.619Z,21.90
2019-05-26T16:21:39.316Z,22.00
2019-05-26T16:24:07.045Z,21.80
2019-05-26T16:26:34.755Z,21.80
2019-05-26T16:29:02.617Z,22.00
2019-05-26T16:31:30.311Z,22.00
2019-05-26T16:33:58.181Z,22.00
2019-05-26T16:36:26.017Z,22.00
2019-05-26T16:38:53.762Z,21.80
2019-05-26T16:41:21.621Z,21.80
2019-05-26T16:43:49.390Z,21.80
2019-05-26T16:46:56.628Z,21.70
2019-05-26T16:49:21.663Z,21.60
2019-05-26T16:51:54.340Z,21.60
2019-05-26T16:54:25.730Z,21.50
2019-05-26T16:56:54.800Z,21.60
2019-05-26T16:59:31.760Z,21.70
2019-05-26T17:02:03.752Z,21.60
2019-05-26T17:05:00.220Z,21.70
2019-05-26T17:07:33.214Z,21.70
2019-05-26T17:10:05.950Z,21.70
2019-05-26T17:12:51.461Z,21.70
2019-05-26T17:15:19.185Z,21.50
2019-05-26T17:17:57.048Z,21.50
2019-05-26T17:20:29.609Z,21.60
2019-05-26T17:23:06.626Z,21.60
2019-05-26T17:25:40.962Z,21.60
2019-05-26T17:28:12.148Z,21.40
2019-05-26T17:30:41.084Z,21.30
2019-05-26T17:33:17.342Z,21.20
2019-05-26T17:35:46.792Z,21.10
2019-05-26T17:38:19.208Z,21.20
2019-05-26T17:40:47.595Z,21.10
2019-05-26T17:43:15.631Z,20.90
2019-05-26T17:45:49.389Z,20.90
2019-05-26T17:51:03.847Z,20.80
2019-05-26T17:53:32.741Z,20.70
2019-05-26T17:56:00.440Z,20.60
2019-05-26T17:58:30.048Z,20.60
2019-05-26T18:00:58.765Z,20.50
2019-05-26T18:03:29.840Z,20.40
2019-05-26T18:05:57.519Z,20.40
2019-05-26T18:08:25.222Z,20.30
2019-05-26T18:10:55.992Z,20.20
2019-05-26T18:13:23.694Z,20.10
2019-05-26T18:15:54.732Z,20.10
2019-05-26T18:18:22.886Z,20.00
2019-05-26T18:20:50.627Z,19.90
2019-05-26T18:23:24.284Z,19.80
2019-05-26T18:25:56.281Z,19.80
2019-05-26T18:28:24.001Z,19.70
2019-05-26T18:30:59.924Z,19.60
2019-05-26T18:33:30.580Z,19.60
2019-05-26T18:36:05.507Z,19.50
2019-05-26T18:38:33.408Z,19.50
2019-05-26T18:41:01.284Z,19.50
2019-05-26T18:43:29.009Z,19.40
2019-05-26T18:46:00.142Z,19.30
2019-05-26T18:48:28.121Z,19.30
2019-05-26T18:51:11.278Z,19.30
2019-05-26T18:53:40.152Z,19.20
2019-05-26T18:56:11.409Z,19.20
2019-05-26T18:58:39.171Z,19.20
2019-05-26T19:01:14.216Z,19.10
2019-05-26T19:03:42.096Z,19.00
2019-05-26T19:06:10.843Z,19.00
2019-05-26T19:08:44.918Z,19.00
2019-05-26T19:11:12.636Z,19.00
2019-05-26T19:13:55.487Z,18.90
2019-05-26T19:16:26.693Z,18.90
2019-05-26T19:18:54.403Z,18.80
2019-05-26T19:21:22.091Z,18.80
2019-05-26T19:23:49.809Z,18.70
2019-05-26T19:26:20.338Z,18.70
2019-05-26T19:28:48.778Z,18.60
2019-05-26T19:31:16.495Z,18.60
2019-05-26T19:33:44.379Z,18.50
2019-05-26T19:36:20.394Z,18.50
2019-05-26T19:38:48.862Z,18.50
2019-05-26T19:41:16.656Z,18.50
2019-05-26T19:43:44.377Z,18.40
2019-05-26T19:46:56.185Z,18.40
2019-05-26T19:49:23.903Z,18.30
2019-05-26T19:51:52.040Z,18.20
2019-05-26T19:54:19.808Z,18.20
2019-05-26T19:56:47.513Z,18.20
2019-05-26T19:59:15.228Z,18.20
2019-05-26T20:01:42.948Z,18.20
2019-05-26T20:04:10.652Z,18.10
2019-05-26T20:06:38.342Z,18.00
2019-05-26T20:09:07.678Z,18.10
2019-05-26T20:11:35.319Z,18.10
2019-05-26T20:14:03.930Z,18.10
2019-05-26T20:16:31.705Z,18.10
2019-05-26T20:18:59.525Z,18.00
2019-05-26T20:21:27.403Z,18.00
2019-05-26T20:23:59.568Z,18.00
2019-05-26T20:26:27.590Z,18.00
2019-05-26T20:28:55.268Z,18.00
2019-05-26T20:31:23.201Z,17.90
2019-05-26T20:33:50.911Z,17.90
2019-05-26T20:36:18.621Z,17.90
2019-05-26T20:38:52.544Z,17.90
2019-05-26T20:41:20.300Z,17.90
2019-05-26T20:43:48.103Z,17.90
2019-05-26T20:46:20.290Z,17.90
2019-05-26T20:48:48.987Z,17.90
2019-05-26T20:51:16.699Z,17.90
2019-05-26T20:53:44.696Z,17.90
2019-05-26T20:56:12.464Z,17.90
2019-05-26T20:58:40.591Z,18.00
2019-05-26T21:01:08.412Z,17.90
2019-05-26T21:03:39.064Z,17.90
2019-05-26T21:06:06.823Z,17.80
2019-05-26T21:08:34.636Z,17.80
2019-05-26T21:11:02.766Z,17.80
2019-05-26T21:13:30.515Z,17.80
2019-05-26T21:15:58.259Z,17.80
2019-05-26T21:18:27.963Z,17.80
2019-05-26T21:20:55.741Z,17.80
2019-05-26T21:23:23.668Z,17.70
2019-05-26T21:25:51.396Z,17.70
2019-05-26T21:28:19.115Z,17.70
2019-05-26T21:30:46.960Z,17.70
2019-05-26T21:33:14.891Z,17.80
2019-05-26T21:35:42.634Z,17.80
2019-05-26T21:38:10.384Z,17.70
2019-05-26T21:40:38.434Z,17.70
2019-05-26T21:43:06.412Z,17.70
2019-05-26T21:45:34.274Z,17.70
2019-05-26T21:48:02.000Z,17.70
2019-05-26T21:50:29.720Z,17.70
2019-05-26T21:52:58.018Z,17.70
2019-05-26T21:55:26.195Z,17.60
2019-05-26T21:57:54.108Z,17.60
2019-05-26T22:00:24.119Z,17.50
2019-05-26T22:02:52.028Z,17.60
2019-05-26T22:05:21.147Z,17.50
2019-05-26T22:07:48.828Z,17.50
2019-05-26T22:10:16.744Z,17.60
2019-05-26T22:12:44.572Z,17.60
2019-05-26T22:15:12.905Z,17.50
2019-05-26T22:17:42.725Z,17.50
2019-05-26T22:20:10.654Z,17.40
2019-05-26T22:22:38.473Z,17.30
2019-05-26T22:25:06.788Z,17.30
2019-05-26T22:27:34.580Z,17.30
2019-05-26T22:30:02.465Z,17.30
2019-05-26T22:32:30.124Z,17.20
2019-05-26T22:34:57.933Z,17.20
2019-05-26T22:37:25.615Z,17.20
2019-05-26T22:39:53.428Z,17.20
2019-05-26T22:42:21.167Z,17.10
2019-05-26T22:44:48.971Z,17.10
2019-05-26T22:47:16.748Z,17.00
2019-05-26T22:49:44.520Z,17.00
2019-05-26T22:52:12.208Z,17.00
2019-05-26T22:54:39.936Z,17.00
2019-05-26T22:57:07.781Z,17.00
2019-05-26T22:59:35.827Z,17.00
2019-05-26T23:02:03.792Z,17.00
2019-05-26T23:04:31.512Z,17.00
2019-05-26T23:06:59.284Z,16.90
2019-05-26T23:09:27.104Z,16.90
2019-05-26T23:11:55.044Z,16.90
2019-05-26T23:14:23.079Z,16.80
2019-05-26T23:16:51.147Z,16.80
2019-05-26T23:19:20.220Z,16.90
2019-05-26T23:21:48.377Z,16.90
2019-05-26T23:24:16.119Z,16.90
2019-05-26T23:26:43.823Z,16.80
2019-05-26T23:29:11.684Z,16.90
2019-05-26T23:31:39.390Z,16.80
2019-05-26T23:34:07.068Z,16.80
2019-05-26T23:36:35.075Z,16.80
2019-05-26T23:39:03.611Z,16.80
2019-05-26T23:41:33.975Z,16.80
2019-05-26T23:44:01.712Z,16.70
2019-05-26T23:46:30.092Z,16.70
2019-05-26T23:48:57.871Z,16.70
2019-05-26T23:51:25.627Z,16.70
2019-05-26T23:53:54.451Z,16.70
2019-05-26T23:56:22.148Z,16.60
2019-05-26T23:58:49.835Z,16.60
